sensor_id;sensor_type;location;lat;lon;timestamp;pressure;altitude;pressure_sealevel;temperature;humidity
20860;BME280;10590;48.154;11.514;2023-02-23T00:00:31;95302.03;;;7.11;71.18
20860;BME280;10590;48.154;11.514;2023-02-23T00:05:35;95301.56;;;7.09;71.46
20860;BME280;10590;48.154;11.514;2023-02-23T00:10:38;95290.75;;;7.05;72.11
20860;BME280;10590;48.154;11.514;2023-02-23T00:15:40;95294.69;;;7.08;71.86
20860;BME280;10590;48.154;11.514;2023-02-23T00:20:41;95303.13;;;7.10;72.27
20860;BME280;10590;48.154;11.514;2023-02-23T00:25:49;95287.03;;;7.06;71.82
20860;BME280;10590;48.154;11.514;2023-02-23T00:30:50;95299.88;;;7.13;72.21
20860;BME280;10590;48.154;11.514;2023-02-23T00:35:52;95310.38;;;7.18;72.46
20860;BME280;10590;48.154;11.514;2023-02-23T00:40:56;95305.53;;;7.20;72.45
20860;BME280;10590;48.154;11.514;2023-02-23T00:45:57;95296.69;;;7.24;72.51
20860;BME280;10590;48.154;11.514;2023-02-23T00:51:00;95305.25;;;7.21;72.74
20860;BME280;10590;48.154;11.514;2023-02-23T00:56:05;95300.78;;;7.30;72.03
20860;BME280;10590;48.154;11.514;2023-02-23T01:01:08;95303.13;;;7.32;72.72
20860;BME280;10590;48.154;11.514;2023-02-23T01:06:13;95296.56;;;7.07;73.05
20860;BME280;10590;48.154;11.514;2023-02-23T01:11:18;95311.94;;;7.19;73.17
20860;BME280;10590;48.154;11.514;2023-02-23T01:16:23;95306.69;;;7.27;73.05
20860;BME280;10590;48.154;11.514;2023-02-23T01:21:29;95296.56;;;7.29;72.67
20860;BME280;10590;48.154;11.514;2023-02-23T01:26:35;95307.72;;;7.18;73.08
20860;BME280;10590;48.154;11.514;2023-02-23T01:31:38;95305.28;;;7.08;74.15
20860;BME280;10590;48.154;11.514;2023-02-23T01:36:42;95300.78;;;7.08;74.17
20860;BME280;10590;48.154;11.514;2023-02-23T01:41:45;95300.94;;;7.12;73.73
20860;BME280;10590;48.154;11.514;2023-02-23T01:46:47;95302.63;;;7.08;73.92
20860;BME280;10590;48.154;11.514;2023-02-23T01:51:53;95308.31;;;7.15;73.63
20860;BME280;10590;48.154;11.514;2023-02-23T01:56:59;95302.88;;;7.20;73.98
20860;BME280;10590;48.154;11.514;2023-02-23T02:02:01;95297.03;;;7.09;73.59
20860;BME280;10590;48.154;11.514;2023-02-23T02:07:04;95298.41;;;7.07;73.94
20860;BME280;10590;48.154;11.514;2023-02-23T02:12:10;95273.28;;;7.04;73.81
20860;BME280;10590;48.154;11.514;2023-02-23T02:17:27;95276.66;;;7.18;73.60
20860;BME280;10590;48.154;11.514;2023-02-23T02:22:42;95276.59;;;7.10;74.17
20860;BME280;10590;48.154;11.514;2023-02-23T02:28:12;95269.41;;;7.10;73.86
20860;BME280;10590;48.154;11.514;2023-02-23T02:33:52;95269.97;;;7.21;73.48
20860;BME280;10590;48.154;11.514;2023-02-23T02:39:05;95268.50;;;7.15;73.84
20860;BME280;10590;48.154;11.514;2023-02-23T02:44:29;95271.88;;;7.07;74.35
20860;BME280;10590;48.154;11.514;2023-02-23T02:49:38;95268.16;;;7.08;73.97
20860;BME280;10590;48.154;11.514;2023-02-23T02:54:48;95269.34;;;7.24;73.13
20860;BME280;10590;48.154;11.514;2023-02-23T02:59:52;95273.16;;;7.09;74.06
20860;BME280;10590;48.154;11.514;2023-02-23T03:05:12;95274.78;;;6.96;74.49
20860;BME280;10590;48.154;11.514;2023-02-23T03:10:37;95271.72;;;6.89;74.91
20860;BME280;10590;48.154;11.514;2023-02-23T03:16:10;95275.84;;;6.95;74.60
20860;BME280;10590;48.154;11.514;2023-02-23T03:21:37;95276.94;;;6.94;74.97
20860;BME280;10590;48.154;11.514;2023-02-23T03:27:08;95268.59;;;6.87;75.32
20860;BME280;10590;48.154;11.514;2023-02-23T03:32:35;95277.03;;;6.89;74.88
20860;BME280;10590;48.154;11.514;2023-02-23T03:38:00;95270.97;;;6.75;75.93
20860;BME280;10590;48.154;11.514;2023-02-23T03:43:26;95270.78;;;6.71;75.80
20860;BME280;10590;48.154;11.514;2023-02-23T03:48:49;95263.31;;;6.74;75.73
20860;BME280;10590;48.154;11.514;2023-02-23T03:54:14;95283.81;;;6.82;75.63
20860;BME280;10590;48.154;11.514;2023-02-23T03:59:40;95284.25;;;6.75;75.38
20860;BME280;10590;48.154;11.514;2023-02-23T04:05:07;95294.97;;;6.56;76.33
20860;BME280;10590;48.154;11.514;2023-02-23T04:10:27;95293.06;;;6.84;74.65
20860;BME280;10590;48.154;11.514;2023-02-23T04:15:51;95291.22;;;6.71;75.62
20860;BME280;10590;48.154;11.514;2023-02-23T04:20:53;95287.88;;;6.79;75.12
20860;BME280;10590;48.154;11.514;2023-02-23T04:25:55;95285.03;;;6.76;74.69
20860;BME280;10590;48.154;11.514;2023-02-23T04:30:58;95291.00;;;6.95;74.28
20860;BME280;10590;48.154;11.514;2023-02-23T04:36:01;95288.50;;;6.49;75.54
20860;BME280;10590;48.154;11.514;2023-02-23T04:41:03;95273.19;;;6.59;74.67
20860;BME280;10590;48.154;11.514;2023-02-23T04:46:06;95288.94;;;6.28;75.98
20860;BME280;10590;48.154;11.514;2023-02-23T04:51:07;95282.84;;;6.14;76.55
20860;BME280;10590;48.154;11.514;2023-02-23T04:56:09;95289.63;;;6.20;76.24
20860;BME280;10590;48.154;11.514;2023-02-23T05:01:12;95296.97;;;6.37;75.65
20860;BME280;10590;48.154;11.514;2023-02-23T05:06:14;95302.38;;;6.32;75.43
20860;BME280;10590;48.154;11.514;2023-02-23T05:11:15;95295.22;;;6.19;76.21
20860;BME280;10590;48.154;11.514;2023-02-23T05:16:18;95302.72;;;5.98;77.27
20860;BME280;10590;48.154;11.514;2023-02-23T05:21:20;95307.94;;;5.89;77.21
20860;BME280;10590;48.154;11.514;2023-02-23T05:26:22;95300.47;;;5.91;77.16
20860;BME280;10590;48.154;11.514;2023-02-23T05:31:26;95305.13;;;5.81;78.20
20860;BME280;10590;48.154;11.514;2023-02-23T05:36:28;95306.16;;;5.98;77.37
20860;BME280;10590;48.154;11.514;2023-02-23T05:41:30;95306.59;;;6.19;76.64
20860;BME280;10590;48.154;11.514;2023-02-23T05:46:33;95308.53;;;6.55;75.87
20860;BME280;10590;48.154;11.514;2023-02-23T05:51:35;95305.66;;;6.65;75.21
20860;BME280;10590;48.154;11.514;2023-02-23T05:56:38;95307.88;;;6.85;74.47
20860;BME280;10590;48.154;11.514;2023-02-23T06:01:42;95309.34;;;6.91;74.19
20860;BME280;10590;48.154;11.514;2023-02-23T06:06:43;95318.81;;;7.20;73.26
20860;BME280;10590;48.154;11.514;2023-02-23T06:11:46;95304.50;;;7.29;72.58
20860;BME280;10590;48.154;11.514;2023-02-23T06:16:48;95311.28;;;7.35;72.15
20860;BME280;10590;48.154;11.514;2023-02-23T06:21:50;95325.25;;;7.27;72.89
20860;BME280;10590;48.154;11.514;2023-02-23T06:26:52;95312.69;;;6.83;74.69
20860;BME280;10590;48.154;11.514;2023-02-23T06:31:55;95335.66;;;6.88;75.39
20860;BME280;10590;48.154;11.514;2023-02-23T06:36:57;95341.66;;;6.93;75.21
20860;BME280;10590;48.154;11.514;2023-02-23T06:41:58;95325.97;;;6.83;75.44
20860;BME280;10590;48.154;11.514;2023-02-23T06:47:02;95347.66;;;7.35;73.82
20860;BME280;10590;48.154;11.514;2023-02-23T06:52:04;95356.69;;;7.34;74.26
20860;BME280;10590;48.154;11.514;2023-02-23T06:57:06;95354.16;;;7.29;74.49
20860;BME280;10590;48.154;11.514;2023-02-23T07:02:11;95336.00;;;7.22;74.33
20860;BME280;10590;48.154;11.514;2023-02-23T07:07:14;95351.75;;;7.41;74.00
20860;BME280;10590;48.154;11.514;2023-02-23T07:12:16;95353.06;;;7.52;74.21
20860;BME280;10590;48.154;11.514;2023-02-23T07:17:18;95362.06;;;7.65;73.82
20860;BME280;10590;48.154;11.514;2023-02-23T07:22:20;95345.97;;;8.15;71.66
20860;BME280;10590;48.154;11.514;2023-02-23T07:27:24;95359.44;;;8.18;71.72
20860;BME280;10590;48.154;11.514;2023-02-23T07:32:28;95360.56;;;7.95;72.95
20860;BME280;10590;48.154;11.514;2023-02-23T07:37:29;95357.00;;;7.99;73.28
20860;BME280;10590;48.154;11.514;2023-02-23T07:42:31;95360.03;;;8.15;72.82
20860;BME280;10590;48.154;11.514;2023-02-23T07:47:34;95369.66;;;8.03;73.32
20860;BME280;10590;48.154;11.514;2023-02-23T07:52:37;95369.31;;;7.95;73.61
20860;BME280;10590;48.154;11.514;2023-02-23T07:57:39;95370.28;;;8.30;72.93
20860;BME280;10590;48.154;11.514;2023-02-23T08:02:42;95371.66;;;7.97;73.46
20860;BME280;10590;48.154;11.514;2023-02-23T08:07:44;95357.78;;;8.00;73.93
20860;BME280;10590;48.154;11.514;2023-02-23T08:12:45;95377.72;;;8.51;72.42
20860;BME280;10590;48.154;11.514;2023-02-23T08:17:48;95357.91;;;8.26;72.90
20860;BME280;10590;48.154;11.514;2023-02-23T08:22:52;95366.03;;;8.29;73.29
20860;BME280;10590;48.154;11.514;2023-02-23T08:27:54;95376.44;;;8.40;73.57
20860;BME280;10590;48.154;11.514;2023-02-23T08:32:57;95374.75;;;9.01;71.68
20860;BME280;10590;48.154;11.514;2023-02-23T08:38:00;95370.22;;;9.01;71.62
20860;BME280;10590;48.154;11.514;2023-02-23T08:43:02;95366.75;;;8.83;71.84
20860;BME280;10590;48.154;11.514;2023-02-23T08:48:05;95364.41;;;8.90;72.13
20860;BME280;10590;48.154;11.514;2023-02-23T08:53:08;95365.03;;;8.96;72.20
20860;BME280;10590;48.154;11.514;2023-02-23T08:58:10;95368.38;;;9.19;72.08
20860;BME280;10590;48.154;11.514;2023-02-23T09:03:13;95368.84;;;9.38;71.59
20860;BME280;10590;48.154;11.514;2023-02-23T09:08:14;95369.47;;;9.52;70.93
20860;BME280;10590;48.154;11.514;2023-02-23T09:13:16;95354.59;;;9.60;70.74
20860;BME280;10590;48.154;11.514;2023-02-23T09:18:21;95359.47;;;9.67;70.87
20860;BME280;10590;48.154;11.514;2023-02-23T09:23:28;95354.75;;;9.46;71.04
20860;BME280;10590;48.154;11.514;2023-02-23T09:28:31;95379.06;;;9.62;71.56
20860;BME280;10590;48.154;11.514;2023-02-23T09:33:34;95376.69;;;9.69;71.22
20860;BME280;10590;48.154;11.514;2023-02-23T09:38:36;95366.78;;;9.87;70.77
20860;BME280;10590;48.154;11.514;2023-02-23T09:43:41;95371.28;;;10.12;69.50
20860;BME280;10590;48.154;11.514;2023-02-23T09:48:48;95370.06;;;10.01;69.83
20860;BME280;10590;48.154;11.514;2023-02-23T09:53:52;95384.44;;;10.43;68.48
20860;BME280;10590;48.154;11.514;2023-02-23T09:58:54;95386.78;;;10.28;68.71
20860;BME280;10590;48.154;11.514;2023-02-23T10:04:00;95388.53;;;10.70;67.59
20860;BME280;10590;48.154;11.514;2023-02-23T10:09:15;95373.81;;;10.94;66.82
20860;BME280;10590;48.154;11.514;2023-02-23T10:14:29;95376.22;;;10.57;67.16
20860;BME280;10590;48.154;11.514;2023-02-23T10:19:40;95385.56;;;11.01;66.61
20860;BME280;10590;48.154;11.514;2023-02-23T10:24:50;95387.03;;;10.90;66.99
20860;BME280;10590;48.154;11.514;2023-02-23T10:29:55;95382.47;;;10.91;67.74
20860;BME280;10590;48.154;11.514;2023-02-23T10:34:58;95384.97;;;10.96;66.72
20860;BME280;10590;48.154;11.514;2023-02-23T10:40:00;95381.78;;;11.02;66.81
20860;BME280;10590;48.154;11.514;2023-02-23T10:45:10;95380.53;;;11.29;65.94
20860;BME280;10590;48.154;11.514;2023-02-23T10:50:15;95369.13;;;10.91;66.51
20860;BME280;10590;48.154;11.514;2023-02-23T10:55:22;95375.72;;;11.64;64.51
20860;BME280;10590;48.154;11.514;2023-02-23T11:00:26;95381.56;;;11.99;62.90
20860;BME280;10590;48.154;11.514;2023-02-23T11:05:36;95372.06;;;11.69;63.92
20860;BME280;10590;48.154;11.514;2023-02-23T11:16:14;95372.13;;;12.59;60.74
20860;BME280;10590;48.154;11.514;2023-02-23T11:21:22;95368.81;;;11.63;63.72
20860;BME280;10590;48.154;11.514;2023-02-23T11:26:30;95363.66;;;11.58;63.54
20860;BME280;10590;48.154;11.514;2023-02-23T11:31:34;95359.03;;;11.67;63.97
20860;BME280;10590;48.154;11.514;2023-02-23T11:36:40;95354.19;;;11.82;62.74
20860;BME280;10590;48.154;11.514;2023-02-23T11:41:42;95351.38;;;12.93;59.77
20860;BME280;10590;48.154;11.514;2023-02-23T11:46:44;95339.75;;;12.28;62.08
20860;BME280;10590;48.154;11.514;2023-02-23T11:51:49;95338.28;;;11.85;63.06
20860;BME280;10590;48.154;11.514;2023-02-23T11:56:52;95334.03;;;11.84;63.26
20860;BME280;10590;48.154;11.514;2023-02-23T12:01:58;95324.72;;;11.36;63.90
20860;BME280;10590;48.154;11.514;2023-02-23T12:07:35;95320.63;;;11.72;62.52
20860;BME280;10590;48.154;11.514;2023-02-23T12:12:58;95315.09;;;12.22;60.51
20860;BME280;10590;48.154;11.514;2023-02-23T12:18:10;95307.59;;;13.25;57.79
20860;BME280;10590;48.154;11.514;2023-02-23T12:23:19;95304.44;;;13.35;58.18
20860;BME280;10590;48.154;11.514;2023-02-23T12:28:28;95303.38;;;13.12;59.33
20860;BME280;10590;48.154;11.514;2023-02-23T12:33:36;95290.94;;;12.43;60.10
20860;BME280;10590;48.154;11.514;2023-02-23T12:38:48;95285.81;;;12.38;60.97
20860;BME280;10590;48.154;11.514;2023-02-23T12:43:54;95298.72;;;12.60;60.66
20860;BME280;10590;48.154;11.514;2023-02-23T12:49:04;95304.47;;;12.13;62.11
20860;BME280;10590;48.154;11.514;2023-02-23T12:54:10;95300.28;;;11.79;63.00
20860;BME280;10590;48.154;11.514;2023-02-23T12:59:26;95284.59;;;11.90;62.62
20860;BME280;10590;48.154;11.514;2023-02-23T13:04:56;95286.06;;;12.00;63.25
20860;BME280;10590;48.154;11.514;2023-02-23T13:10:11;95288.66;;;12.08;63.47
20860;BME280;10590;48.154;11.514;2023-02-23T13:15:31;95287.94;;;11.87;63.03
20860;BME280;10590;48.154;11.514;2023-02-23T13:20:42;95283.22;;;12.54;60.54
20860;BME280;10590;48.154;11.514;2023-02-23T13:25:53;95279.84;;;12.93;59.53
20860;BME280;10590;48.154;11.514;2023-02-23T13:30:59;95280.75;;;12.12;60.23
20860;BME280;10590;48.154;11.514;2023-02-23T13:36:02;95284.91;;;12.34;60.69
20860;BME280;10590;48.154;11.514;2023-02-23T13:41:11;95261.94;;;12.45;59.81
20860;BME280;10590;48.154;11.514;2023-02-23T13:46:27;95264.28;;;12.22;59.54
20860;BME280;10590;48.154;11.514;2023-02-23T13:51:35;95271.81;;;12.08;59.88
20860;BME280;10590;48.154;11.514;2023-02-23T13:56:43;95271.63;;;12.50;60.03
20860;BME280;10590;48.154;11.514;2023-02-23T14:01:47;95268.97;;;12.50;58.33
20860;BME280;10590;48.154;11.514;2023-02-23T14:06:52;95267.84;;;13.27;56.88
20860;BME280;10590;48.154;11.514;2023-02-23T14:12:02;95259.91;;;12.66;57.24
20860;BME280;10590;48.154;11.514;2023-02-23T14:22:24;95266.72;;;12.52;58.08
20860;BME280;10590;48.154;11.514;2023-02-23T14:27:37;95255.63;;;11.80;59.75
20860;BME280;10590;48.154;11.514;2023-02-23T14:32:44;95263.38;;;11.73;60.43
20860;BME280;10590;48.154;11.514;2023-02-23T14:37:53;95258.41;;;11.51;60.76
20860;BME280;10590;48.154;11.514;2023-02-23T14:43:00;95237.47;;;11.40;61.79
20860;BME280;10590;48.154;11.514;2023-02-23T14:48:05;95256.31;;;11.56;60.85
20860;BME280;10590;48.154;11.514;2023-02-23T14:53:17;95263.72;;;11.38;61.67
20860;BME280;10590;48.154;11.514;2023-02-23T14:58:24;95257.91;;;11.36;61.80
20860;BME280;10590;48.154;11.514;2023-02-23T15:03:26;95248.03;;;11.37;62.05
20860;BME280;10590;48.154;11.514;2023-02-23T15:08:30;95263.91;;;11.12;63.04
20860;BME280;10590;48.154;11.514;2023-02-23T15:13:34;95252.41;;;11.00;63.26
20860;BME280;10590;48.154;11.514;2023-02-23T15:18:39;95254.03;;;10.92;63.80
20860;BME280;10590;48.154;11.514;2023-02-23T15:23:43;95251.16;;;10.76;65.41
20860;BME280;10590;48.154;11.514;2023-02-23T15:28:47;95248.69;;;10.71;66.44
20860;BME280;10590;48.154;11.514;2023-02-23T15:33:49;95253.63;;;10.81;66.80
20860;BME280;10590;48.154;11.514;2023-02-23T15:38:54;95254.94;;;10.75;68.17
20860;BME280;10590;48.154;11.514;2023-02-23T15:44:04;95253.56;;;10.40;70.73
20860;BME280;10590;48.154;11.514;2023-02-23T15:49:10;95251.53;;;10.66;69.07
20860;BME280;10590;48.154;11.514;2023-02-23T15:54:17;95244.69;;;10.27;69.70
20860;BME280;10590;48.154;11.514;2023-02-23T15:59:26;95254.66;;;10.47;69.28
20860;BME280;10590;48.154;11.514;2023-02-23T16:04:31;95255.88;;;10.50;69.92
20860;BME280;10590;48.154;11.514;2023-02-23T16:09:36;95249.03;;;10.40;69.90
20860;BME280;10590;48.154;11.514;2023-02-23T16:14:44;95251.25;;;10.30;68.96
20860;BME280;10590;48.154;11.514;2023-02-23T16:19:46;95252.81;;;10.31;69.49
20860;BME280;10590;48.154;11.514;2023-02-23T16:24:55;95249.06;;;10.82;68.25
20860;BME280;10590;48.154;11.514;2023-02-23T16:30:15;95250.00;;;10.86;68.40
20860;BME280;10590;48.154;11.514;2023-02-23T16:35:19;95237.41;;;10.66;68.06
20860;BME280;10590;48.154;11.514;2023-02-23T16:40:21;95258.97;;;10.61;68.50
20860;BME280;10590;48.154;11.514;2023-02-23T16:45:25;95261.41;;;10.36;69.31
20860;BME280;10590;48.154;11.514;2023-02-23T16:50:28;95254.78;;;10.51;68.92
20860;BME280;10590;48.154;11.514;2023-02-23T16:55:34;95261.03;;;10.55;68.72
20860;BME280;10590;48.154;11.514;2023-02-23T17:00:40;95252.06;;;10.60;68.88
20860;BME280;10590;48.154;11.514;2023-02-23T17:05:41;95256.53;;;10.38;69.50
20860;BME280;10590;48.154;11.514;2023-02-23T17:10:46;95246.63;;;10.47;69.04
20860;BME280;10590;48.154;11.514;2023-02-23T17:15:52;95254.84;;;10.34;69.48
20860;BME280;10590;48.154;11.514;2023-02-23T17:20:57;95264.69;;;10.04;70.72
20860;BME280;10590;48.154;11.514;2023-02-23T17:26:00;95267.66;;;9.55;72.43
20860;BME280;10590;48.154;11.514;2023-02-23T17:31:04;95243.91;;;8.99;74.06
20860;BME280;10590;48.154;11.514;2023-02-23T17:36:09;95272.03;;;9.43;72.75
20860;BME280;10590;48.154;11.514;2023-02-23T17:41:13;95271.41;;;9.37;72.99
20860;BME280;10590;48.154;11.514;2023-02-23T17:46:17;95273.00;;;9.04;73.83
20860;BME280;10590;48.154;11.514;2023-02-23T17:51:19;95268.00;;;8.76;75.39
20860;BME280;10590;48.154;11.514;2023-02-23T17:56:21;95277.72;;;8.32;76.83
20860;BME280;10590;48.154;11.514;2023-02-23T18:01:24;95290.75;;;8.03;77.92
20860;BME280;10590;48.154;11.514;2023-02-23T18:06:26;95280.72;;;8.00;78.11
20860;BME280;10590;48.154;11.514;2023-02-23T18:11:29;95284.34;;;8.04;78.64
20860;BME280;10590;48.154;11.514;2023-02-23T18:16:32;95287.03;;;8.13;77.15
20860;BME280;10590;48.154;11.514;2023-02-23T18:21:34;95279.56;;;7.84;78.42
20860;BME280;10590;48.154;11.514;2023-02-23T18:26:40;95277.63;;;8.07;77.09
20860;BME280;10590;48.154;11.514;2023-02-23T18:31:43;95265.28;;;7.80;77.73
20860;BME280;10590;48.154;11.514;2023-02-23T18:36:45;95277.53;;;7.58;78.49
20860;BME280;10590;48.154;11.514;2023-02-23T18:41:48;95277.78;;;7.48;79.27
20860;BME280;10590;48.154;11.514;2023-02-23T18:46:52;95275.25;;;7.43;79.25
20860;BME280;10590;48.154;11.514;2023-02-23T18:51:57;95269.59;;;7.36;78.82
20860;BME280;10590;48.154;11.514;2023-02-23T18:56:59;95275.50;;;7.11;80.21
20860;BME280;10590;48.154;11.514;2023-02-23T19:02:03;95275.09;;;6.81;81.08
20860;BME280;10590;48.154;11.514;2023-02-23T19:07:05;95272.56;;;6.76;80.98
20860;BME280;10590;48.154;11.514;2023-02-23T19:12:06;95273.09;;;7.00;79.77
20860;BME280;10590;48.154;11.514;2023-02-23T19:17:09;95271.47;;;6.77;80.19
20860;BME280;10590;48.154;11.514;2023-02-23T19:22:11;95263.97;;;6.57;80.87
20860;BME280;10590;48.154;11.514;2023-02-23T19:27:12;95268.28;;;6.53;81.54
20860;BME280;10590;48.154;11.514;2023-02-23T19:32:16;95267.34;;;6.21;82.50
20860;BME280;10590;48.154;11.514;2023-02-23T19:37:18;95276.09;;;6.08;83.07
20860;BME280;10590;48.154;11.514;2023-02-23T19:42:19;95272.66;;;6.21;82.36
20860;BME280;10590;48.154;11.514;2023-02-23T19:47:22;95272.66;;;6.07;82.61
20860;BME280;10590;48.154;11.514;2023-02-23T19:52:24;95280.31;;;6.23;82.55
20860;BME280;10590;48.154;11.514;2023-02-23T19:57:28;95278.13;;;6.25;82.04
20860;BME280;10590;48.154;11.514;2023-02-23T20:02:31;95283.16;;;6.26;81.50
20860;BME280;10590;48.154;11.514;2023-02-23T20:07:32;95284.59;;;6.05;82.29
20860;BME280;10590;48.154;11.514;2023-02-23T20:12:34;95274.72;;;6.24;81.46
20860;BME280;10590;48.154;11.514;2023-02-23T20:17:37;95283.28;;;5.89;82.83
20860;BME280;10590;48.154;11.514;2023-02-23T20:22:39;95283.72;;;5.96;83.04
20860;BME280;10590;48.154;11.514;2023-02-23T20:27:42;95280.75;;;5.97;82.59
20860;BME280;10590;48.154;11.514;2023-02-23T20:32:46;95285.78;;;5.99;82.88
20860;BME280;10590;48.154;11.514;2023-02-23T20:37:47;95273.44;;;6.22;82.42
20860;BME280;10590;48.154;11.514;2023-02-23T20:42:50;95256.94;;;6.25;82.19
20860;BME280;10590;48.154;11.514;2023-02-23T20:47:54;95265.44;;;6.49;80.56
20860;BME280;10590;48.154;11.514;2023-02-23T20:52:56;95271.69;;;6.67;80.05
20860;BME280;10590;48.154;11.514;2023-02-23T20:57:59;95263.97;;;6.57;80.81
20860;BME280;10590;48.154;11.514;2023-02-23T21:03:02;95268.66;;;6.60;80.92
20860;BME280;10590;48.154;11.514;2023-02-23T21:08:05;95262.09;;;6.57;81.11
20860;BME280;10590;48.154;11.514;2023-02-23T21:13:08;95255.38;;;6.24;82.33
20860;BME280;10590;48.154;11.514;2023-02-23T21:18:12;95254.00;;;6.26;82.96
20860;BME280;10590;48.154;11.514;2023-02-23T21:23:14;95257.69;;;6.53;81.82
20860;BME280;10590;48.154;11.514;2023-02-23T21:28:19;95240.81;;;6.49;82.05
20860;BME280;10590;48.154;11.514;2023-02-23T21:33:22;95253.13;;;6.67;81.42
20860;BME280;10590;48.154;11.514;2023-02-23T21:38:25;95247.69;;;6.50;82.31
20860;BME280;10590;48.154;11.514;2023-02-23T21:43:26;95225.06;;;6.66;80.95
20860;BME280;10590;48.154;11.514;2023-02-23T21:48:30;95231.34;;;6.92;80.12
20860;BME280;10590;48.154;11.514;2023-02-23T21:53:34;95247.25;;;6.92;80.24
20860;BME280;10590;48.154;11.514;2023-02-23T21:58:37;95244.56;;;7.06;79.24
20860;BME280;10590;48.154;11.514;2023-02-23T22:03:41;95236.22;;;6.77;80.35
20860;BME280;10590;48.154;11.514;2023-02-23T22:08:44;95224.72;;;6.81;79.53
20860;BME280;10590;48.154;11.514;2023-02-23T22:13:48;95231.81;;;6.36;81.48
20860;BME280;10590;48.154;11.514;2023-02-23T22:18:51;95236.56;;;6.12;82.66
20860;BME280;10590;48.154;11.514;2023-02-23T22:23:53;95238.31;;;6.16;82.39
20860;BME280;10590;48.154;11.514;2023-02-23T22:28:55;95221.63;;;6.02;82.10
20860;BME280;10590;48.154;11.514;2023-02-23T22:33:58;95212.97;;;5.83;82.42
20860;BME280;10590;48.154;11.514;2023-02-23T22:39:00;95227.72;;;6.16;81.88
20860;BME280;10590;48.154;11.514;2023-02-23T22:44:01;95216.59;;;6.42;80.42
20860;BME280;10590;48.154;11.514;2023-02-23T22:49:05;95207.69;;;6.24;80.62
20860;BME280;10590;48.154;11.514;2023-02-23T22:54:07;95217.03;;;6.07;82.14
20860;BME280;10590;48.154;11.514;2023-02-23T22:59:09;95212.59;;;6.17;81.73
20860;BME280;10590;48.154;11.514;2023-02-23T23:04:12;95189.56;;;5.90;82.46
20860;BME280;10590;48.154;11.514;2023-02-23T23:09:14;95210.25;;;6.15;82.42
20860;BME280;10590;48.154;11.514;2023-02-23T23:14:18;95195.31;;;6.33;81.81
20860;BME280;10590;48.154;11.514;2023-02-23T23:19:21;95180.09;;;6.38;81.26
20860;BME280;10590;48.154;11.514;2023-02-23T23:24:23;95187.19;;;6.52;80.06
20860;BME280;10590;48.154;11.514;2023-02-23T23:29:26;95188.94;;;6.56;80.08
20860;BME280;10590;48.154;11.514;2023-02-23T23:34:31;95186.25;;;6.48;80.60
20860;BME280;10590;48.154;11.514;2023-02-23T23:39:33;95188.03;;;6.38;81.17
20860;BME280;10590;48.154;11.514;2023-02-23T23:44:35;95159.63;;;6.03;82.31
20860;BME280;10590;48.154;11.514;2023-02-23T23:49:38;95176.06;;;6.41;81.37
20860;BME280;10590;48.154;11.514;2023-02-23T23:54:40;95171.13;;;6.48;80.59
20860;BME280;10590;48.154;11.514;2023-02-23T23:59:42;95177.09;;;6.76;78.83
